sensor_id;sensor_type;location;lat;lon;timestamp;P1;durP1;ratioP1;P2;durP2;ratioP2
69981;SDS011;57319;56.274;43.980;2023-11-21T00:00:12;3.88;;;3.03;;
69981;SDS011;57319;56.274;43.980;2023-11-21T00:02:40;6.28;;;4.60;;
69981;SDS011;57319;56.274;43.980;2023-11-21T00:05:10;9.32;;;4.60;;
69981;SDS011;57319;56.274;43.980;2023-11-21T00:07:39;5.72;;;4.38;;
69981;SDS011;57319;56.274;43.980;2023-11-21T00:10:05;5.40;;;3.15;;
69981;SDS011;57319;56.274;43.980;2023-11-21T00:12:31;5.90;;;3.75;;
69981;SDS011;57319;56.274;43.980;2023-11-21T00:14:58;2.83;;;2.50;;
69981;SDS011;57319;56.274;43.980;2023-11-21T00:17:24;6.65;;;3.92;;
69981;SDS011;57319;56.274;43.980;2023-11-21T00:19:50;9.65;;;4.95;;
69981;SDS011;57319;56.274;43.980;2023-11-21T00:22:17;3.45;;;3.20;;
69981;SDS011;57319;56.274;43.980;2023-11-21T00:24:43;5.22;;;4.00;;
69981;SDS011;57319;56.274;43.980;2023-11-21T00:27:08;5.38;;;4.30;;
69981;SDS011;57319;56.274;43.980;2023-11-21T00:29:34;5.38;;;3.70;;
69981;SDS011;57319;56.274;43.980;2023-11-21T00:32:00;9.88;;;4.38;;
69981;SDS011;57319;56.274;43.980;2023-11-21T00:34:25;11.95;;;4.78;;
69981;SDS011;57319;56.274;43.980;2023-11-21T00:36:51;4.97;;;3.90;;
69981;SDS011;57319;56.274;43.980;2023-11-21T00:39:16;4.38;;;3.97;;
69981;SDS011;57319;56.274;43.980;2023-11-21T00:41:42;6.65;;;4.40;;
69981;SDS011;57319;56.274;43.980;2023-11-21T00:44:07;5.75;;;4.13;;
69981;SDS011;57319;56.274;43.980;2023-11-21T00:46:33;6.45;;;4.45;;
69981;SDS011;57319;56.274;43.980;2023-11-21T00:48:58;7.20;;;4.32;;
69981;SDS011;57319;56.274;43.980;2023-11-21T00:51:24;2.58;;;2.10;;
69981;SDS011;57319;56.274;43.980;2023-11-21T00:53:50;11.88;;;4.18;;
69981;SDS011;57319;56.274;43.980;2023-11-21T00:56:15;6.65;;;4.13;;
69981;SDS011;57319;56.274;43.980;2023-11-21T00:58:41;8.00;;;3.38;;
69981;SDS011;57319;56.274;43.980;2023-11-21T01:01:14;5.13;;;4.00;;
69981;SDS011;57319;56.274;43.980;2023-11-21T01:03:40;5.53;;;4.55;;
69981;SDS011;57319;56.274;43.980;2023-11-21T01:06:05;4.55;;;3.40;;
69981;SDS011;57319;56.274;43.980;2023-11-21T01:08:33;4.65;;;4.10;;
69981;SDS011;57319;56.274;43.980;2023-11-21T01:10:58;4.65;;;4.22;;
69981;SDS011;57319;56.274;43.980;2023-11-21T01:13:24;5.47;;;4.00;;
69981;SDS011;57319;56.274;43.980;2023-11-21T01:15:54;4.05;;;3.10;;
69981;SDS011;57319;56.274;43.980;2023-11-21T01:18:20;6.13;;;3.67;;
69981;SDS011;57319;56.274;43.980;2023-11-21T01:20:46;6.93;;;4.03;;
69981;SDS011;57319;56.274;43.980;2023-11-21T01:23:12;6.10;;;3.70;;
69981;SDS011;57319;56.274;43.980;2023-11-21T01:25:38;11.15;;;4.70;;
69981;SDS011;57319;56.274;43.980;2023-11-21T01:28:04;7.18;;;4.38;;
69981;SDS011;57319;56.274;43.980;2023-11-21T01:30:30;7.13;;;3.78;;
69981;SDS011;57319;56.274;43.980;2023-11-21T01:32:57;4.07;;;3.67;;
69981;SDS011;57319;56.274;43.980;2023-11-21T01:35:23;3.95;;;2.97;;
69981;SDS011;57319;56.274;43.980;2023-11-21T01:37:49;6.22;;;3.97;;
69981;SDS011;57319;56.274;43.980;2023-11-21T01:40:15;6.88;;;5.18;;
69981;SDS011;57319;56.274;43.980;2023-11-21T01:42:41;5.95;;;3.53;;
69981;SDS011;57319;56.274;43.980;2023-11-21T01:45:09;2.97;;;2.05;;
69981;SDS011;57319;56.274;43.980;2023-11-21T01:47:35;4.65;;;4.20;;
69981;SDS011;57319;56.274;43.980;2023-11-21T01:50:02;8.23;;;4.68;;
69981;SDS011;57319;56.274;43.980;2023-11-21T01:52:30;5.90;;;4.60;;
69981;SDS011;57319;56.274;43.980;2023-11-21T01:54:56;3.88;;;3.58;;
69981;SDS011;57319;56.274;43.980;2023-11-21T01:57:24;5.45;;;4.07;;
69981;SDS011;57319;56.274;43.980;2023-11-21T01:59:50;5.68;;;4.50;;
69981;SDS011;57319;56.274;43.980;2023-11-21T02:02:19;4.28;;;2.97;;
69981;SDS011;57319;56.274;43.980;2023-11-21T02:04:44;3.80;;;3.25;;
69981;SDS011;57319;56.274;43.980;2023-11-21T02:07:10;9.50;;;4.93;;
69981;SDS011;57319;56.274;43.980;2023-11-21T02:09:36;8.05;;;4.85;;
69981;SDS011;57319;56.274;43.980;2023-11-21T02:12:07;4.35;;;3.33;;
69981;SDS011;57319;56.274;43.980;2023-11-21T02:14:35;4.25;;;3.85;;
69981;SDS011;57319;56.274;43.980;2023-11-21T02:17:01;3.88;;;3.53;;
69981;SDS011;57319;56.274;43.980;2023-11-21T02:19:28;10.50;;;4.60;;
69981;SDS011;57319;56.274;43.980;2023-11-21T02:22:15;4.68;;;4.28;;
69981;SDS011;57319;56.274;43.980;2023-11-21T02:24:41;9.23;;;4.47;;
69981;SDS011;57319;56.274;43.980;2023-11-21T02:27:07;3.95;;;3.55;;
69981;SDS011;57319;56.274;43.980;2023-11-21T02:29:33;5.53;;;4.43;;
69981;SDS011;57319;56.274;43.980;2023-11-21T02:31:58;9.20;;;5.40;;
69981;SDS011;57319;56.274;43.980;2023-11-21T02:34:24;17.05;;;5.32;;
69981;SDS011;57319;56.274;43.980;2023-11-21T02:36:50;7.65;;;4.40;;
69981;SDS011;57319;56.274;43.980;2023-11-21T02:39:16;7.25;;;4.05;;
69981;SDS011;57319;56.274;43.980;2023-11-21T02:41:43;6.97;;;4.28;;
69981;SDS011;57319;56.274;43.980;2023-11-21T02:44:09;5.53;;;5.03;;
69981;SDS011;57319;56.274;43.980;2023-11-21T02:46:35;7.38;;;4.32;;
69981;SDS011;57319;56.274;43.980;2023-11-21T02:49:02;6.70;;;4.28;;
69981;SDS011;57319;56.274;43.980;2023-11-21T02:51:29;6.53;;;4.60;;
69981;SDS011;57319;56.274;43.980;2023-11-21T02:53:55;4.60;;;4.22;;
69981;SDS011;57319;56.274;43.980;2023-11-21T02:56:27;7.10;;;4.68;;
69981;SDS011;57319;56.274;43.980;2023-11-21T02:58:54;6.88;;;4.80;;
69981;SDS011;57319;56.274;43.980;2023-11-21T03:01:20;4.00;;;3.70;;
69981;SDS011;57319;56.274;43.980;2023-11-21T03:03:46;6.20;;;4.90;;
69981;SDS011;57319;56.274;43.980;2023-11-21T03:06:12;10.90;;;4.65;;
69981;SDS011;57319;56.274;43.980;2023-11-21T03:08:38;7.32;;;5.05;;
69981;SDS011;57319;56.274;43.980;2023-11-21T03:11:04;5.05;;;4.63;;
69981;SDS011;57319;56.274;43.980;2023-11-21T03:13:29;10.90;;;5.10;;
69981;SDS011;57319;56.274;43.980;2023-11-21T03:15:55;8.25;;;4.85;;
69981;SDS011;57319;56.274;43.980;2023-11-21T03:18:21;5.82;;;4.65;;
69981;SDS011;57319;56.274;43.980;2023-11-21T03:20:47;7.32;;;5.55;;
69981;SDS011;57319;56.274;43.980;2023-11-21T03:23:12;4.82;;;4.38;;
69981;SDS011;57319;56.274;43.980;2023-11-21T03:25:38;4.35;;;3.60;;
69981;SDS011;57319;56.274;43.980;2023-11-21T03:28:04;11.95;;;5.32;;
69981;SDS011;57319;56.274;43.980;2023-11-21T03:30:29;7.10;;;4.43;;
69981;SDS011;57319;56.274;43.980;2023-11-21T03:32:55;9.65;;;5.68;;
69981;SDS011;57319;56.274;43.980;2023-11-21T03:35:21;7.93;;;5.47;;
69981;SDS011;57319;56.274;43.980;2023-11-21T03:37:47;7.97;;;5.22;;
69981;SDS011;57319;56.274;43.980;2023-11-21T03:40:12;9.77;;;5.72;;
69981;SDS011;57319;56.274;43.980;2023-11-21T03:42:38;10.30;;;6.72;;
69981;SDS011;57319;56.274;43.980;2023-11-21T03:45:05;15.73;;;7.15;;
69981;SDS011;57319;56.274;43.980;2023-11-21T03:47:31;12.38;;;5.65;;
69981;SDS011;57319;56.274;43.980;2023-11-21T03:49:56;12.00;;;6.72;;
69981;SDS011;57319;56.274;43.980;2023-11-21T03:52:22;10.52;;;6.43;;
69981;SDS011;57319;56.274;43.980;2023-11-21T03:54:48;10.80;;;5.93;;
69981;SDS011;57319;56.274;43.980;2023-11-21T03:57:13;7.90;;;3.53;;
69981;SDS011;57319;56.274;43.980;2023-11-21T03:59:42;6.93;;;5.10;;
69981;SDS011;57319;56.274;43.980;2023-11-21T04:02:08;5.10;;;4.68;;
69981;SDS011;57319;56.274;43.980;2023-11-21T04:04:34;7.20;;;5.93;;
69981;SDS011;57319;56.274;43.980;2023-11-21T04:07:01;7.28;;;6.35;;
69981;SDS011;57319;56.274;43.980;2023-11-21T04:09:26;13.02;;;6.80;;
69981;SDS011;57319;56.274;43.980;2023-11-21T04:11:53;12.50;;;6.80;;
69981;SDS011;57319;56.274;43.980;2023-11-21T04:14:19;9.60;;;5.93;;
69981;SDS011;57319;56.274;43.980;2023-11-21T04:16:45;18.27;;;8.35;;
69981;SDS011;57319;56.274;43.980;2023-11-21T04:19:10;20.02;;;7.53;;
69981;SDS011;57319;56.274;43.980;2023-11-21T04:21:36;16.02;;;6.15;;
69981;SDS011;57319;56.274;43.980;2023-11-21T04:24:02;18.35;;;7.38;;
69981;SDS011;57319;56.274;43.980;2023-11-21T04:26:28;23.98;;;6.97;;
69981;SDS011;57319;56.274;43.980;2023-11-21T04:28:54;14.45;;;8.10;;
69981;SDS011;57319;56.274;43.980;2023-11-21T04:31:19;21.15;;;9.82;;
69981;SDS011;57319;56.274;43.980;2023-11-21T04:33:45;13.27;;;7.10;;
69981;SDS011;57319;56.274;43.980;2023-11-21T04:36:10;13.25;;;7.40;;
69981;SDS011;57319;56.274;43.980;2023-11-21T04:38:36;16.88;;;6.78;;
69981;SDS011;57319;56.274;43.980;2023-11-21T04:41:01;9.05;;;7.07;;
69981;SDS011;57319;56.274;43.980;2023-11-21T04:43:27;9.77;;;5.80;;
69981;SDS011;57319;56.274;43.980;2023-11-21T04:45:54;3.05;;;2.85;;
69981;SDS011;57319;56.274;43.980;2023-11-21T04:48:20;9.05;;;5.93;;
69981;SDS011;57319;56.274;43.980;2023-11-21T04:50:45;8.93;;;5.88;;
69981;SDS011;57319;56.274;43.980;2023-11-21T04:53:11;7.78;;;5.22;;
69981;SDS011;57319;56.274;43.980;2023-11-21T04:55:39;9.98;;;6.00;;
69981;SDS011;57319;56.274;43.980;2023-11-21T04:58:06;6.50;;;5.70;;
69981;SDS011;57319;56.274;43.980;2023-11-21T05:00:31;8.30;;;6.03;;
69981;SDS011;57319;56.274;43.980;2023-11-21T05:02:57;9.75;;;5.85;;
69981;SDS011;57319;56.274;43.980;2023-11-21T05:05:22;4.10;;;3.85;;
69981;SDS011;57319;56.274;43.980;2023-11-21T05:07:49;7.30;;;6.15;;
69981;SDS011;57319;56.274;43.980;2023-11-21T05:10:14;11.27;;;7.15;;
69981;SDS011;57319;56.274;43.980;2023-11-21T05:12:41;8.80;;;6.53;;
69981;SDS011;57319;56.274;43.980;2023-11-21T05:15:07;9.93;;;6.85;;
69981;SDS011;57319;56.274;43.980;2023-11-21T05:17:36;9.70;;;6.95;;
69981;SDS011;57319;56.274;43.980;2023-11-21T05:20:06;11.57;;;7.25;;
69981;SDS011;57319;56.274;43.980;2023-11-21T05:22:34;13.63;;;6.63;;
69981;SDS011;57319;56.274;43.980;2023-11-21T05:25:00;11.18;;;6.40;;
69981;SDS011;57319;56.274;43.980;2023-11-21T05:27:28;7.80;;;5.97;;
69981;SDS011;57319;56.274;43.980;2023-11-21T05:29:55;9.57;;;6.22;;
69981;SDS011;57319;56.274;43.980;2023-11-21T05:32:20;15.93;;;9.70;;
69981;SDS011;57319;56.274;43.980;2023-11-21T05:34:46;10.45;;;6.32;;
69981;SDS011;57319;56.274;43.980;2023-11-21T05:37:12;6.95;;;6.03;;
69981;SDS011;57319;56.274;43.980;2023-11-21T05:39:37;11.35;;;5.85;;
69981;SDS011;57319;56.274;43.980;2023-11-21T05:42:03;9.63;;;5.88;;
69981;SDS011;57319;56.274;43.980;2023-11-21T05:44:29;11.25;;;6.65;;
69981;SDS011;57319;56.274;43.980;2023-11-21T05:46:55;7.20;;;6.43;;
69981;SDS011;57319;56.274;43.980;2023-11-21T05:49:20;10.13;;;7.50;;
69981;SDS011;57319;56.274;43.980;2023-11-21T05:51:47;9.70;;;6.57;;
69981;SDS011;57319;56.274;43.980;2023-11-21T05:54:12;11.95;;;6.75;;
69981;SDS011;57319;56.274;43.980;2023-11-21T05:56:38;6.53;;;5.68;;
69981;SDS011;57319;56.274;43.980;2023-11-21T05:59:04;11.98;;;7.03;;
69981;SDS011;57319;56.274;43.980;2023-11-21T06:01:29;9.27;;;6.60;;
69981;SDS011;57319;56.274;43.980;2023-11-21T06:03:55;15.27;;;6.65;;
69981;SDS011;57319;56.274;43.980;2023-11-21T06:06:21;10.93;;;6.85;;
69981;SDS011;57319;56.274;43.980;2023-11-21T06:08:50;11.88;;;6.70;;
69981;SDS011;57319;56.274;43.980;2023-11-21T06:11:15;11.18;;;6.78;;
69981;SDS011;57319;56.274;43.980;2023-11-21T06:13:42;9.02;;;6.75;;
69981;SDS011;57319;56.274;43.980;2023-11-21T06:16:08;8.95;;;5.35;;
69981;SDS011;57319;56.274;43.980;2023-11-21T06:18:34;10.18;;;6.07;;
69981;SDS011;57319;56.274;43.980;2023-11-21T06:21:00;14.25;;;6.53;;
69981;SDS011;57319;56.274;43.980;2023-11-21T06:23:26;9.57;;;6.82;;
69981;SDS011;57319;56.274;43.980;2023-11-21T06:25:52;13.52;;;7.00;;
69981;SDS011;57319;56.274;43.980;2023-11-21T06:28:18;11.82;;;7.25;;
69981;SDS011;57319;56.274;43.980;2023-11-21T06:30:43;12.32;;;6.63;;
69981;SDS011;57319;56.274;43.980;2023-11-21T06:33:12;9.25;;;5.85;;
69981;SDS011;57319;56.274;43.980;2023-11-21T06:35:38;7.00;;;5.78;;
69981;SDS011;57319;56.274;43.980;2023-11-21T06:38:03;11.50;;;6.07;;
69981;SDS011;57319;56.274;43.980;2023-11-21T06:40:29;9.05;;;6.38;;
69981;SDS011;57319;56.274;43.980;2023-11-21T06:42:55;8.80;;;5.28;;
69981;SDS011;57319;56.274;43.980;2023-11-21T06:45:20;10.85;;;6.63;;
69981;SDS011;57319;56.274;43.980;2023-11-21T06:47:46;8.45;;;5.50;;
69981;SDS011;57319;56.274;43.980;2023-11-21T06:50:12;3.67;;;3.35;;
69981;SDS011;57319;56.274;43.980;2023-11-21T06:52:38;7.60;;;5.90;;
69981;SDS011;57319;56.274;43.980;2023-11-21T06:55:04;9.40;;;6.07;;
69981;SDS011;57319;56.274;43.980;2023-11-21T06:57:31;9.00;;;6.53;;
69981;SDS011;57319;56.274;43.980;2023-11-21T06:59:56;8.00;;;6.00;;
69981;SDS011;57319;56.274;43.980;2023-11-21T07:02:22;6.22;;;5.65;;
69981;SDS011;57319;56.274;43.980;2023-11-21T07:04:49;8.90;;;6.13;;
69981;SDS011;57319;56.274;43.980;2023-11-21T07:07:14;12.48;;;6.57;;
69981;SDS011;57319;56.274;43.980;2023-11-21T07:09:40;13.52;;;6.97;;
69981;SDS011;57319;56.274;43.980;2023-11-21T07:12:05;3.83;;;3.45;;
69981;SDS011;57319;56.274;43.980;2023-11-21T07:14:35;18.40;;;6.05;;
69981;SDS011;57319;56.274;43.980;2023-11-21T07:17:01;5.80;;;4.18;;
69981;SDS011;57319;56.274;43.980;2023-11-21T07:19:26;4.90;;;3.03;;
69981;SDS011;57319;56.274;43.980;2023-11-21T07:21:52;5.40;;;3.85;;
69981;SDS011;57319;56.274;43.980;2023-11-21T07:24:18;8.15;;;4.68;;
69981;SDS011;57319;56.274;43.980;2023-11-21T07:26:43;6.00;;;5.45;;
69981;SDS011;57319;56.274;43.980;2023-11-21T07:29:09;8.10;;;5.68;;
69981;SDS011;57319;56.274;43.980;2023-11-21T07:31:36;10.35;;;5.57;;
69981;SDS011;57319;56.274;43.980;2023-11-21T07:34:03;9.13;;;5.68;;
69981;SDS011;57319;56.274;43.980;2023-11-21T07:36:29;9.15;;;6.18;;
69981;SDS011;57319;56.274;43.980;2023-11-21T07:38:54;9.95;;;5.85;;
69981;SDS011;57319;56.274;43.980;2023-11-21T07:41:20;10.75;;;5.47;;
69981;SDS011;57319;56.274;43.980;2023-11-21T07:43:46;8.13;;;5.80;;
69981;SDS011;57319;56.274;43.980;2023-11-21T07:46:12;9.85;;;5.13;;
69981;SDS011;57319;56.274;43.980;2023-11-21T07:48:39;13.55;;;5.25;;
69981;SDS011;57319;56.274;43.980;2023-11-21T07:51:06;11.15;;;6.63;;
69981;SDS011;57319;56.274;43.980;2023-11-21T07:53:35;6.88;;;4.95;;
69981;SDS011;57319;56.274;43.980;2023-11-21T07:56:04;7.80;;;5.22;;
69981;SDS011;57319;56.274;43.980;2023-11-21T07:58:31;11.38;;;5.85;;
69981;SDS011;57319;56.274;43.980;2023-11-21T08:00:58;10.85;;;5.50;;
69981;SDS011;57319;56.274;43.980;2023-11-21T08:03:24;10.77;;;5.50;;
69981;SDS011;57319;56.274;43.980;2023-11-21T08:05:52;12.18;;;6.60;;
69981;SDS011;57319;56.274;43.980;2023-11-21T08:08:17;8.45;;;4.85;;
69981;SDS011;57319;56.274;43.980;2023-11-21T08:10:44;14.95;;;5.78;;
69981;SDS011;57319;56.274;43.980;2023-11-21T08:13:21;5.45;;;4.90;;
69981;SDS011;57319;56.274;43.980;2023-11-21T08:15:50;10.93;;;6.85;;
69981;SDS011;57319;56.274;43.980;2023-11-21T08:18:18;13.63;;;6.97;;
69981;SDS011;57319;56.274;43.980;2023-11-21T08:20:44;11.57;;;6.55;;
69981;SDS011;57319;56.274;43.980;2023-11-21T08:23:13;9.57;;;6.30;;
69981;SDS011;57319;56.274;43.980;2023-11-21T08:25:44;15.50;;;7.85;;
69981;SDS011;57319;56.274;43.980;2023-11-21T08:28:10;9.70;;;5.85;;
69981;SDS011;57319;56.274;43.980;2023-11-21T08:30:36;11.30;;;6.43;;
69981;SDS011;57319;56.274;43.980;2023-11-21T08:33:02;12.57;;;5.50;;
69981;SDS011;57319;56.274;43.980;2023-11-21T08:35:29;16.08;;;6.18;;
69981;SDS011;57319;56.274;43.980;2023-11-21T08:37:55;11.52;;;6.60;;
69981;SDS011;57319;56.274;43.980;2023-11-21T08:40:20;6.05;;;3.47;;
69981;SDS011;57319;56.274;43.980;2023-11-21T08:42:47;8.65;;;6.03;;
69981;SDS011;57319;56.274;43.980;2023-11-21T08:45:13;17.83;;;6.00;;
69981;SDS011;57319;56.274;43.980;2023-11-21T08:47:40;11.23;;;5.32;;
69981;SDS011;57319;56.274;43.980;2023-11-21T08:50:06;19.65;;;6.60;;
69981;SDS011;57319;56.274;43.980;2023-11-21T08:52:33;13.52;;;6.15;;
69981;SDS011;57319;56.274;43.980;2023-11-21T08:55:00;11.68;;;4.63;;
69981;SDS011;57319;56.274;43.980;2023-11-21T08:57:33;11.68;;;6.43;;
69981;SDS011;57319;56.274;43.980;2023-11-21T09:00:00;10.43;;;6.60;;
69981;SDS011;57319;56.274;43.980;2023-11-21T09:02:26;10.25;;;6.45;;
69981;SDS011;57319;56.274;43.980;2023-11-21T09:04:52;11.70;;;5.40;;
69981;SDS011;57319;56.274;43.980;2023-11-21T09:07:18;7.85;;;5.60;;
69981;SDS011;57319;56.274;43.980;2023-11-21T09:09:45;14.70;;;7.13;;
69981;SDS011;57319;56.274;43.980;2023-11-21T09:12:12;12.82;;;5.88;;
69981;SDS011;57319;56.274;43.980;2023-11-21T09:14:38;10.23;;;6.28;;
69981;SDS011;57319;56.274;43.980;2023-11-21T09:17:04;11.38;;;6.07;;
69981;SDS011;57319;56.274;43.980;2023-11-21T09:19:36;10.13;;;6.35;;
69981;SDS011;57319;56.274;43.980;2023-11-21T09:22:02;9.82;;;6.00;;
69981;SDS011;57319;56.274;43.980;2023-11-21T09:24:28;13.60;;;7.57;;
69981;SDS011;57319;56.274;43.980;2023-11-21T09:26:53;12.20;;;7.22;;
69981;SDS011;57319;56.274;43.980;2023-11-21T09:29:19;14.10;;;7.40;;
69981;SDS011;57319;56.274;43.980;2023-11-21T09:31:45;11.43;;;5.82;;
69981;SDS011;57319;56.274;43.980;2023-11-21T09:34:10;11.05;;;6.45;;
69981;SDS011;57319;56.274;43.980;2023-11-21T09:36:36;16.40;;;7.15;;
69981;SDS011;57319;56.274;43.980;2023-11-21T09:39:04;11.70;;;6.07;;
69981;SDS011;57319;56.274;43.980;2023-11-21T09:41:44;9.02;;;5.93;;
69981;SDS011;57319;56.274;43.980;2023-11-21T09:44:18;11.05;;;6.63;;
69981;SDS011;57319;56.274;43.980;2023-11-21T09:46:47;7.90;;;4.63;;
69981;SDS011;57319;56.274;43.980;2023-11-21T09:49:18;13.55;;;6.65;;
69981;SDS011;57319;56.274;43.980;2023-11-21T09:51:46;13.65;;;6.80;;
69981;SDS011;57319;56.274;43.980;2023-11-21T09:54:13;6.97;;;5.80;;
69981;SDS011;57319;56.274;43.980;2023-11-21T09:56:42;11.55;;;6.03;;
69981;SDS011;57319;56.274;43.980;2023-11-21T09:59:10;10.52;;;6.32;;
69981;SDS011;57319;56.274;43.980;2023-11-21T10:01:38;12.32;;;6.88;;
69981;SDS011;57319;56.274;43.980;2023-11-21T10:04:06;12.15;;;5.60;;
69981;SDS011;57319;56.274;43.980;2023-11-21T10:06:37;7.90;;;6.60;;
69981;SDS011;57319;56.274;43.980;2023-11-21T10:09:05;14.93;;;6.35;;
69981;SDS011;57319;56.274;43.980;2023-11-21T10:11:37;9.23;;;4.85;;
69981;SDS011;57319;56.274;43.980;2023-11-21T10:14:06;13.68;;;7.05;;
69981;SDS011;57319;56.274;43.980;2023-11-21T10:16:35;8.77;;;6.78;;
69981;SDS011;57319;56.274;43.980;2023-11-21T10:19:03;15.05;;;6.53;;
69981;SDS011;57319;56.274;43.980;2023-11-21T10:21:32;8.93;;;6.13;;
69981;SDS011;57319;56.274;43.980;2023-11-21T10:23:58;17.25;;;7.32;;
69981;SDS011;57319;56.274;43.980;2023-11-21T10:26:24;18.60;;;6.72;;
69981;SDS011;57319;56.274;43.980;2023-11-21T10:28:59;15.40;;;6.65;;
69981;SDS011;57319;56.274;43.980;2023-11-21T10:31:31;7.78;;;4.93;;
69981;SDS011;57319;56.274;43.980;2023-11-21T10:37:41;4.93;;;3.88;;
69981;SDS011;57319;56.274;43.980;2023-11-21T10:40:09;7.80;;;5.80;;
69981;SDS011;57319;56.274;43.980;2023-11-21T10:42:38;8.35;;;6.15;;
69981;SDS011;57319;56.274;43.980;2023-11-21T10:45:05;18.75;;;6.93;;
69981;SDS011;57319;56.274;43.980;2023-11-21T10:47:41;5.75;;;4.32;;
69981;SDS011;57319;56.274;43.980;2023-11-21T10:50:07;7.32;;;5.53;;
69981;SDS011;57319;56.274;43.980;2023-11-21T10:52:37;13.45;;;6.03;;
69981;SDS011;57319;56.274;43.980;2023-11-21T10:55:25;3.70;;;3.40;;
69981;SDS011;57319;56.274;43.980;2023-11-21T10:57:52;13.68;;;5.97;;
69981;SDS011;57319;56.274;43.980;2023-11-21T11:00:19;11.63;;;6.82;;
69981;SDS011;57319;56.274;43.980;2023-11-21T11:02:51;10.02;;;5.90;;
69981;SDS011;57319;56.274;43.980;2023-11-21T11:05:19;15.95;;;6.47;;
69981;SDS011;57319;56.274;43.980;2023-11-21T11:07:50;15.00;;;6.55;;
69981;SDS011;57319;56.274;43.980;2023-11-21T11:10:24;11.40;;;6.82;;
69981;SDS011;57319;56.274;43.980;2023-11-21T11:12:53;8.15;;;5.47;;
69981;SDS011;57319;56.274;43.980;2023-11-21T11:15:20;12.52;;;6.35;;
69981;SDS011;57319;56.274;43.980;2023-11-21T11:17:46;12.35;;;5.82;;
69981;SDS011;57319;56.274;43.980;2023-11-21T11:20:14;9.32;;;5.40;;
69981;SDS011;57319;56.274;43.980;2023-11-21T11:26:01;11.88;;;6.18;;
69981;SDS011;57319;56.274;43.980;2023-11-21T11:37:06;6.85;;;4.78;;
69981;SDS011;57319;56.274;43.980;2023-11-21T11:39:38;12.63;;;6.13;;
69981;SDS011;57319;56.274;43.980;2023-11-21T11:42:11;7.18;;;6.05;;
69981;SDS011;57319;56.274;43.980;2023-11-21T11:47:14;8.93;;;5.82;;
69981;SDS011;57319;56.274;43.980;2023-11-21T11:52:48;6.53;;;4.03;;
69981;SDS011;57319;56.274;43.980;2023-11-21T11:55:17;5.15;;;4.18;;
69981;SDS011;57319;56.274;43.980;2023-11-21T11:57:48;6.93;;;4.60;;
69981;SDS011;57319;56.274;43.980;2023-11-21T12:00:21;12.95;;;5.15;;
69981;SDS011;57319;56.274;43.980;2023-11-21T12:03:01;6.25;;;5.15;;
69981;SDS011;57319;56.274;43.980;2023-11-21T12:05:29;9.52;;;5.63;;
69981;SDS011;57319;56.274;43.980;2023-11-21T12:08:01;8.73;;;5.40;;
69981;SDS011;57319;56.274;43.980;2023-11-21T12:10:29;12.10;;;4.22;;
69981;SDS011;57319;56.274;43.980;2023-11-21T12:12:58;8.30;;;5.65;;
69981;SDS011;57319;56.274;43.980;2023-11-21T12:15:28;9.73;;;5.63;;
69981;SDS011;57319;56.274;43.980;2023-11-21T12:17:56;7.10;;;5.00;;
69981;SDS011;57319;56.274;43.980;2023-11-21T12:20:23;5.70;;;4.88;;
69981;SDS011;57319;56.274;43.980;2023-11-21T12:22:50;6.93;;;5.25;;
69981;SDS011;57319;56.274;43.980;2023-11-21T12:27:47;8.15;;;5.30;;
69981;SDS011;57319;56.274;43.980;2023-11-21T12:30:23;8.43;;;5.28;;
69981;SDS011;57319;56.274;43.980;2023-11-21T12:32:50;9.25;;;4.78;;
69981;SDS011;57319;56.274;43.980;2023-11-21T12:35:17;4.63;;;3.45;;
69981;SDS011;57319;56.274;43.980;2023-11-21T12:37:47;8.15;;;4.22;;
69981;SDS011;57319;56.274;43.980;2023-11-21T12:40:14;6.57;;;3.67;;
69981;SDS011;57319;56.274;43.980;2023-11-21T12:42:41;8.77;;;6.00;;
69981;SDS011;57319;56.274;43.980;2023-11-21T12:47:45;3.85;;;3.00;;
69981;SDS011;57319;56.274;43.980;2023-11-21T12:50:18;8.15;;;5.13;;
69981;SDS011;57319;56.274;43.980;2023-11-21T12:52:48;4.10;;;3.60;;
69981;SDS011;57319;56.274;43.980;2023-11-21T12:55:19;6.78;;;4.60;;
69981;SDS011;57319;56.274;43.980;2023-11-21T12:57:52;8.32;;;4.93;;
69981;SDS011;57319;56.274;43.980;2023-11-21T13:00:33;5.15;;;4.28;;
69981;SDS011;57319;56.274;43.980;2023-11-21T13:03:03;6.25;;;4.90;;
69981;SDS011;57319;56.274;43.980;2023-11-21T13:05:31;4.60;;;3.28;;
69981;SDS011;57319;56.274;43.980;2023-11-21T13:08:02;6.22;;;4.20;;
69981;SDS011;57319;56.274;43.980;2023-11-21T13:10:31;3.50;;;3.17;;
69981;SDS011;57319;56.274;43.980;2023-11-21T13:12:58;5.50;;;4.47;;
69981;SDS011;57319;56.274;43.980;2023-11-21T13:15:25;6.10;;;4.43;;
69981;SDS011;57319;56.274;43.980;2023-11-21T13:17:52;4.10;;;3.80;;
69981;SDS011;57319;56.274;43.980;2023-11-21T13:20:19;7.70;;;4.03;;
69981;SDS011;57319;56.274;43.980;2023-11-21T13:22:49;4.00;;;3.70;;
69981;SDS011;57319;56.274;43.980;2023-11-21T13:25:16;4.05;;;3.45;;
69981;SDS011;57319;56.274;43.980;2023-11-21T13:27:45;3.88;;;3.05;;
69981;SDS011;57319;56.274;43.980;2023-11-21T13:30:14;9.88;;;4.68;;
69981;SDS011;57319;56.274;43.980;2023-11-21T13:32:48;7.30;;;4.93;;
69981;SDS011;57319;56.274;43.980;2023-11-21T13:35:16;5.20;;;4.28;;
69981;SDS011;57319;56.274;43.980;2023-11-21T13:37:51;6.95;;;4.90;;
69981;SDS011;57319;56.274;43.980;2023-11-21T13:40:21;7.18;;;4.30;;
69981;SDS011;57319;56.274;43.980;2023-11-21T13:42:52;6.03;;;4.38;;
69981;SDS011;57319;56.274;43.980;2023-11-21T13:45:21;4.97;;;4.45;;
69981;SDS011;57319;56.274;43.980;2023-11-21T13:47:48;10.05;;;4.13;;
69981;SDS011;57319;56.274;43.980;2023-11-21T13:50:20;6.32;;;4.00;;
69981;SDS011;57319;56.274;43.980;2023-11-21T13:52:51;2.95;;;2.70;;
69981;SDS011;57319;56.274;43.980;2023-11-21T13:55:18;6.63;;;4.47;;
69981;SDS011;57319;56.274;43.980;2023-11-21T13:57:45;2.55;;;2.38;;
69981;SDS011;57319;56.274;43.980;2023-11-21T14:00:15;5.95;;;3.97;;
69981;SDS011;57319;56.274;43.980;2023-11-21T14:03:00;1.98;;;1.88;;
69981;SDS011;57319;56.274;43.980;2023-11-21T14:05:29;4.85;;;4.32;;
69981;SDS011;57319;56.274;43.980;2023-11-21T14:07:56;2.28;;;2.00;;
69981;SDS011;57319;56.274;43.980;2023-11-21T14:10:28;2.85;;;2.65;;
69981;SDS011;57319;56.274;43.980;2023-11-21T14:13:03;4.05;;;3.75;;
69981;SDS011;57319;56.274;43.980;2023-11-21T14:15:30;4.00;;;3.65;;
69981;SDS011;57319;56.274;43.980;2023-11-21T14:17:58;8.75;;;5.05;;
69981;SDS011;57319;56.274;43.980;2023-11-21T14:20:27;5.13;;;4.57;;
69981;SDS011;57319;56.274;43.980;2023-11-21T14:22:54;1.33;;;1.33;;
69981;SDS011;57319;56.274;43.980;2023-11-21T14:25:19;6.78;;;4.45;;
69981;SDS011;57319;56.274;43.980;2023-11-21T14:27:47;2.58;;;2.45;;
69981;SDS011;57319;56.274;43.980;2023-11-21T14:30:13;6.35;;;4.40;;
69981;SDS011;57319;56.274;43.980;2023-11-21T14:32:43;3.60;;;2.60;;
69981;SDS011;57319;56.274;43.980;2023-11-21T14:35:08;1.73;;;1.67;;
69981;SDS011;57319;56.274;43.980;2023-11-21T14:37:34;4.55;;;3.30;;
69981;SDS011;57319;56.274;43.980;2023-11-21T14:40:00;3.83;;;3.25;;
69981;SDS011;57319;56.274;43.980;2023-11-21T14:42:26;3.35;;;2.58;;
69981;SDS011;57319;56.274;43.980;2023-11-21T14:44:54;3.13;;;2.85;;
69981;SDS011;57319;56.274;43.980;2023-11-21T14:47:25;4.60;;;3.05;;
69981;SDS011;57319;56.274;43.980;2023-11-21T14:49:52;5.18;;;4.05;;
69981;SDS011;57319;56.274;43.980;2023-11-21T14:52:21;7.15;;;3.83;;
69981;SDS011;57319;56.274;43.980;2023-11-21T14:55:00;4.30;;;3.97;;
69981;SDS011;57319;56.274;43.980;2023-11-21T14:58:01;2.70;;;2.45;;